Horatio, SC (29062)

12:49 PM EDT en Octubre 24, 2014 (GMT -0400)
Historic Hills | Change Station
CLOSE
Current Station
Estación meteorológica personal
Location: Dalzell, SC
Altura: 219 ft
Estaciones meteorológicas cercanas

Alt 219 ft 33.99 °N, 80.53 °W | Updated 11 seconds ago

Despejado
Despejado
66.0 ° F
Sensación térmica 66.0 ° F
N
0.7
Viento Variable Viento desde SO
Gusts 2.2 mph

Hoy
Alta -- | Baja -- ° F
--% Posibilidad de precipitaciones
Ayer
Alta -- | Baja -- ° F
Precip. -- pul
7:34 AM 6:37 PM
Luna nueva, 1% visible
Presión 30.06 pul
Visibilidad 10.0 Millas
Nubes Despejado
Punto de rocío 53 ° F
Humedad 63%
Precipitaciones 0.00 pul
Espesor de la nieve No disponible.
UV 5 de una escala de 12
Polen 3.00 de una escala de 12
Ozono Buena
Flu Activity Sporadic
METAR KSSC 241558Z AUTO 09004KT 10SM CLR 18/07 A3006 RMK AO2 SLP180 T01810067 $

More Conditions Fewer Conditions

Presión 30.06 pul
Visibilidad 10.0 Millas
Nubes Despejado
Punto de rocío 53 ° F
Humedad 63%
Precipitaciones 0.00 pul
Espesor de la nieve No disponible.
UV 5 de una escala de 12
Polen 3.00 de una escala de 12
Ozono Buena
Flu Activity Sporadic
METAR KSSC 241558Z AUTO 09004KT 10SM CLR 18/07 A3006 RMK AO2 SLP180 T01810067 $

More Conditions Fewer Conditions

10-Day Weather Forecast

Almanac

Astronomía

Oct. 24, 2014 Salida Puesta
Hora real 7:34 AM EDT 6:37 PM EDT
Crepúsculo civil 7:09 AM EDT 7:02 PM EDT
Crepúsculo náutico 6:39 AM EDT 7:32 PM EDT
Crepúsculo astronómico 6:10 AM EDT 8:01 PM EDT
Luna 8:10 AM EDT 7:18 PM EDT
Horas de luz 11h 53m
Horas de luz
11h 02m
Tomorrow will be 1m 58s shorter.
Luna nueva, 1% of the Moon is Illuminated
Hoy
Luna nueva
Oct 30
Cuarto creciente
Nov 6
Luna llena
Nov 14
Cuarto menguante
Nov 22
Nueva

Extremos de hoy

Máximos del estado Bajos del estado

Community

WunderPhotos

Upload Photos

1,764,609 ¡fotos cargadas!

WunderBlogs® & News

By Dr. Jeff Masters
Director of Meteorology, Weather Underground
By Kari Strenfel
Meteorologist, Weather Underground
By Christopher C. Burt
Weather Historian, Weather Underground
October 24, 2014
October 24, 2014
October 24, 2014

Nearby

Calidad del aire

  Calidad del aire Índice AQ Contaminante
Ayer Buena
OZONE
Real Buena
OZONE

Grosos de nieve

Estación Profundido Altura
No tenemos constancia de nieve nueva.

Actividad de terremotos

Ciudad Distance Mag. Tiempo y dato
No hay informes recientes de la actividad sísmica.
Magnitud mínima muestra es 2,5.

Temperaturas de aguas costeras

Lugar Temperatura
Sin partes meteorológicos de las estaciones

Estaciones meteorológicas cercanas